sensor_id;sensor_type;location;lat;lon;timestamp;P1;durP1;ratioP1;P2;durP2;ratioP2
71296;SDS011;59082;50.658;4.608;2023-04-22T04:45:54;53.23;;;23.97;;
71296;SDS011;59082;50.658;4.608;2023-04-22T04:48:19;60.27;;;24.17;;
71296;SDS011;59082;50.658;4.608;2023-04-22T04:50:48;62.83;;;24.92;;
71296;SDS011;59082;50.658;4.608;2023-04-22T04:53:14;57.78;;;25.45;;
71296;SDS011;59082;50.658;4.608;2023-04-22T04:55:39;57.83;;;25.27;;
71296;SDS011;59082;50.658;4.608;2023-04-22T04:58:05;70.00;;;25.90;;
71296;SDS011;59082;50.658;4.608;2023-04-22T05:00:30;66.83;;;26.40;;
71296;SDS011;59082;50.658;4.608;2023-04-22T05:02:55;65.37;;;25.57;;
71296;SDS011;59082;50.658;4.608;2023-04-22T05:05:21;67.20;;;26.63;;
71296;SDS011;59082;50.658;4.608;2023-04-22T05:07:46;66.60;;;27.85;;
71296;SDS011;59082;50.658;4.608;2023-04-22T05:10:12;71.30;;;27.83;;
71296;SDS011;59082;50.658;4.608;2023-04-22T05:12:38;70.38;;;27.63;;
71296;SDS011;59082;50.658;4.608;2023-04-22T05:15:04;61.17;;;24.33;;
71296;SDS011;59082;50.658;4.608;2023-04-22T05:17:30;66.25;;;27.02;;
71296;SDS011;59082;50.658;4.608;2023-04-22T05:19:55;68.40;;;25.83;;
71296;SDS011;59082;50.658;4.608;2023-04-22T05:22:21;67.80;;;27.33;;
71296;SDS011;59082;50.658;4.608;2023-04-22T05:24:46;69.00;;;26.50;;
71296;SDS011;59082;50.658;4.608;2023-04-22T05:27:12;64.43;;;24.98;;
71296;SDS011;59082;50.658;4.608;2023-04-22T05:29:37;73.63;;;27.23;;
71296;SDS011;59082;50.658;4.608;2023-04-22T05:32:05;62.17;;;25.90;;
71296;SDS011;59082;50.658;4.608;2023-04-22T05:34:30;66.30;;;25.65;;
71296;SDS011;59082;50.658;4.608;2023-04-22T05:36:56;65.33;;;25.70;;
71296;SDS011;59082;50.658;4.608;2023-04-22T05:39:21;65.33;;;27.10;;
71296;SDS011;59082;50.658;4.608;2023-04-22T05:41:46;63.87;;;27.13;;
71296;SDS011;59082;50.658;4.608;2023-04-22T05:44:12;66.50;;;27.00;;
71296;SDS011;59082;50.658;4.608;2023-04-22T05:46:37;74.15;;;27.95;;
71296;SDS011;59082;50.658;4.608;2023-04-22T05:49:03;66.83;;;27.13;;
71296;SDS011;59082;50.658;4.608;2023-04-22T05:51:28;62.47;;;25.53;;
71296;SDS011;59082;50.658;4.608;2023-04-22T05:53:53;53.53;;;22.27;;
71296;SDS011;59082;50.658;4.608;2023-04-22T05:56:19;54.08;;;23.52;;
71296;SDS011;59082;50.658;4.608;2023-04-22T05:58:45;52.67;;;23.67;;
71296;SDS011;59082;50.658;4.608;2023-04-22T06:01:10;50.35;;;23.13;;
71296;SDS011;59082;50.658;4.608;2023-04-22T06:03:36;50.33;;;21.83;;
71296;SDS011;59082;50.658;4.608;2023-04-22T06:06:01;44.47;;;21.33;;
71296;SDS011;59082;50.658;4.608;2023-04-22T06:08:28;41.25;;;20.02;;
71296;SDS011;59082;50.658;4.608;2023-04-22T06:10:54;42.17;;;19.17;;
71296;SDS011;59082;50.658;4.608;2023-04-22T06:13:19;38.03;;;19.27;;
71296;SDS011;59082;50.658;4.608;2023-04-22T06:15:45;39.77;;;19.90;;
71296;SDS011;59082;50.658;4.608;2023-04-22T06:18:10;39.37;;;20.40;;
71296;SDS011;59082;50.658;4.608;2023-04-22T06:20:35;38.40;;;21.37;;
71296;SDS011;59082;50.658;4.608;2023-04-22T06:23:01;38.73;;;22.63;;
71296;SDS011;59082;50.658;4.608;2023-04-22T06:25:26;39.72;;;20.33;;
71296;SDS011;59082;50.658;4.608;2023-04-22T06:27:52;36.97;;;20.07;;
71296;SDS011;59082;50.658;4.608;2023-04-22T06:30:17;37.40;;;20.10;;
71296;SDS011;59082;50.658;4.608;2023-04-22T06:32:42;38.90;;;20.00;;
71296;SDS011;59082;50.658;4.608;2023-04-22T06:35:08;31.45;;;17.65;;
71296;SDS011;59082;50.658;4.608;2023-04-22T06:37:33;38.90;;;19.43;;
71296;SDS011;59082;50.658;4.608;2023-04-22T06:39:59;36.47;;;20.43;;
71296;SDS011;59082;50.658;4.608;2023-04-22T06:42:24;29.33;;;18.17;;
71296;SDS011;59082;50.658;4.608;2023-04-22T06:44:49;23.47;;;14.90;;
71296;SDS011;59082;50.658;4.608;2023-04-22T06:47:15;23.47;;;14.50;;
71296;SDS011;59082;50.658;4.608;2023-04-22T06:49:40;21.38;;;14.73;;
71296;SDS011;59082;50.658;4.608;2023-04-22T06:52:07;19.65;;;13.95;;
71296;SDS011;59082;50.658;4.608;2023-04-22T06:54:32;21.33;;;14.00;;
71296;SDS011;59082;50.658;4.608;2023-04-22T06:56:58;19.43;;;13.97;;
71296;SDS011;59082;50.658;4.608;2023-04-22T06:59:23;18.50;;;11.52;;
71296;SDS011;59082;50.658;4.608;2023-04-22T07:01:49;20.73;;;13.10;;
71296;SDS011;59082;50.658;4.608;2023-04-22T07:04:14;18.47;;;12.33;;
71296;SDS011;59082;50.658;4.608;2023-04-22T07:06:40;19.70;;;12.33;;
71296;SDS011;59082;50.658;4.608;2023-04-22T07:09:05;17.30;;;12.38;;
71296;SDS011;59082;50.658;4.608;2023-04-22T07:11:30;16.00;;;12.10;;
71296;SDS011;59082;50.658;4.608;2023-04-22T07:13:56;14.40;;;10.77;;
71296;SDS011;59082;50.658;4.608;2023-04-22T07:16:22;15.68;;;11.23;;
71296;SDS011;59082;50.658;4.608;2023-04-22T07:18:47;14.43;;;9.73;;
71296;SDS011;59082;50.658;4.608;2023-04-22T07:21:12;13.60;;;10.23;;
71296;SDS011;59082;50.658;4.608;2023-04-22T07:23:41;12.87;;;9.30;;
71296;SDS011;59082;50.658;4.608;2023-04-22T07:26:06;10.45;;;8.30;;
71296;SDS011;59082;50.658;4.608;2023-04-22T07:28:32;11.23;;;8.33;;
71296;SDS011;59082;50.658;4.608;2023-04-22T07:30:57;10.07;;;8.23;;
71296;SDS011;59082;50.658;4.608;2023-04-22T07:33:22;11.27;;;8.75;;
71296;SDS011;59082;50.658;4.608;2023-04-22T07:35:48;8.63;;;7.17;;
71296;SDS011;59082;50.658;4.608;2023-04-22T07:38:13;6.77;;;6.07;;
71296;SDS011;59082;50.658;4.608;2023-04-22T07:40:39;11.47;;;7.13;;
71296;SDS011;59082;50.658;4.608;2023-04-22T07:43:04;14.32;;;7.30;;
71296;SDS011;59082;50.658;4.608;2023-04-22T07:45:31;8.93;;;7.37;;
71296;SDS011;59082;50.658;4.608;2023-04-22T07:47:57;8.57;;;7.22;;
71296;SDS011;59082;50.658;4.608;2023-04-22T07:50:22;9.97;;;7.77;;
71296;SDS011;59082;50.658;4.608;2023-04-22T07:52:48;14.20;;;7.63;;
71296;SDS011;59082;50.658;4.608;2023-04-22T07:55:13;9.52;;;8.13;;
71296;SDS011;59082;50.658;4.608;2023-04-22T07:57:39;10.53;;;8.63;;
71296;SDS011;59082;50.658;4.608;2023-04-22T08:00:05;8.80;;;7.60;;
71296;SDS011;59082;50.658;4.608;2023-04-22T08:02:30;9.23;;;7.45;;
71296;SDS011;59082;50.658;4.608;2023-04-22T08:04:56;11.20;;;7.67;;
71296;SDS011;59082;50.658;4.608;2023-04-22T08:07:21;9.83;;;6.67;;
71296;SDS011;59082;50.658;4.608;2023-04-22T08:09:47;7.57;;;6.83;;
71296;SDS011;59082;50.658;4.608;2023-04-22T08:12:13;8.10;;;5.78;;
71296;SDS011;59082;50.658;4.608;2023-04-22T08:14:38;7.85;;;6.43;;
71296;SDS011;59082;50.658;4.608;2023-04-22T08:17:04;8.87;;;5.50;;
71296;SDS011;59082;50.658;4.608;2023-04-22T08:19:29;7.83;;;6.33;;
71296;SDS011;59082;50.658;4.608;2023-04-22T08:21:55;9.07;;;5.00;;
71296;SDS011;59082;50.658;4.608;2023-04-22T08:24:20;7.78;;;5.03;;
71296;SDS011;59082;50.658;4.608;2023-04-22T08:26:46;6.27;;;4.93;;
71296;SDS011;59082;50.658;4.608;2023-04-22T08:29:11;8.40;;;5.93;;
71296;SDS011;59082;50.658;4.608;2023-04-22T08:31:37;6.75;;;5.47;;
71296;SDS011;59082;50.658;4.608;2023-04-22T08:34:02;7.07;;;5.87;;
71296;SDS011;59082;50.658;4.608;2023-04-22T08:36:28;5.87;;;5.23;;
71296;SDS011;59082;50.658;4.608;2023-04-22T08:38:54;5.18;;;4.18;;
71296;SDS011;59082;50.658;4.608;2023-04-22T08:41:20;5.00;;;4.37;;
71296;SDS011;59082;50.658;4.608;2023-04-22T08:43:46;4.35;;;3.95;;
71296;SDS011;59082;50.658;4.608;2023-04-22T08:46:11;5.10;;;4.60;;
71296;SDS011;59082;50.658;4.608;2023-04-22T08:48:39;9.65;;;4.63;;
71296;SDS011;59082;50.658;4.608;2023-04-22T08:51:05;5.13;;;4.10;;
71296;SDS011;59082;50.658;4.608;2023-04-22T08:53:32;5.97;;;3.95;;
71296;SDS011;59082;50.658;4.608;2023-04-22T08:55:57;6.50;;;4.57;;
71296;SDS011;59082;50.658;4.608;2023-04-22T08:58:23;6.20;;;4.30;;
71296;SDS011;59082;50.658;4.608;2023-04-22T09:00:49;5.38;;;4.25;;
71296;SDS011;59082;50.658;4.608;2023-04-22T09:03:15;6.43;;;3.77;;
71296;SDS011;59082;50.658;4.608;2023-04-22T09:05:40;4.80;;;3.70;;
71296;SDS011;59082;50.658;4.608;2023-04-22T09:08:08;5.53;;;4.10;;
71296;SDS011;59082;50.658;4.608;2023-04-22T09:10:36;5.50;;;4.15;;
71296;SDS011;59082;50.658;4.608;2023-04-22T09:13:02;4.90;;;3.58;;
71296;SDS011;59082;50.658;4.608;2023-04-22T09:15:28;4.35;;;3.60;;
71296;SDS011;59082;50.658;4.608;2023-04-22T09:17:54;6.23;;;4.30;;
71296;SDS011;59082;50.658;4.608;2023-04-22T09:20:25;5.10;;;4.60;;
71296;SDS011;59082;50.658;4.608;2023-04-22T09:22:54;6.78;;;5.10;;
71296;SDS011;59082;50.658;4.608;2023-04-22T09:25:25;6.40;;;5.77;;
71296;SDS011;59082;50.658;4.608;2023-04-22T09:27:51;6.22;;;5.13;;
71296;SDS011;59082;50.658;4.608;2023-04-22T09:30:28;6.15;;;5.53;;
71296;SDS011;59082;50.658;4.608;2023-04-22T09:32:57;6.13;;;5.22;;
71296;SDS011;59082;50.658;4.608;2023-04-22T09:37:51;8.20;;;6.07;;
71296;SDS011;59082;50.658;4.608;2023-04-22T09:40:17;7.60;;;6.00;;
71296;SDS011;59082;50.658;4.608;2023-04-22T09:42:50;6.47;;;5.40;;
71296;SDS011;59082;50.658;4.608;2023-04-22T09:45:32;7.75;;;5.60;;
71296;SDS011;59082;50.658;4.608;2023-04-22T09:48:02;7.25;;;4.95;;
71296;SDS011;59082;50.658;4.608;2023-04-22T09:50:28;7.57;;;6.00;;
71296;SDS011;59082;50.658;4.608;2023-04-22T09:53:00;10.53;;;6.13;;
71296;SDS011;59082;50.658;4.608;2023-04-22T09:55:27;5.60;;;4.95;;
71296;SDS011;59082;50.658;4.608;2023-04-22T09:57:53;6.13;;;5.03;;
71296;SDS011;59082;50.658;4.608;2023-04-22T10:00:20;7.65;;;5.82;;
71296;SDS011;59082;50.658;4.608;2023-04-22T10:02:45;6.30;;;5.70;;
71296;SDS011;59082;50.658;4.608;2023-04-22T10:05:11;7.27;;;6.17;;
71296;SDS011;59082;50.658;4.608;2023-04-22T10:07:37;10.15;;;5.68;;
71296;SDS011;59082;50.658;4.608;2023-04-22T10:10:05;8.63;;;5.63;;
71296;SDS011;59082;50.658;4.608;2023-04-22T10:12:31;8.32;;;5.70;;
71296;SDS011;59082;50.658;4.608;2023-04-22T10:14:58;8.07;;;5.35;;
71296;SDS011;59082;50.658;4.608;2023-04-22T10:17:23;8.20;;;6.70;;
71296;SDS011;59082;50.658;4.608;2023-04-22T10:19:49;9.13;;;6.13;;
71296;SDS011;59082;50.658;4.608;2023-04-22T10:22:15;8.63;;;5.70;;
71296;SDS011;59082;50.658;4.608;2023-04-22T10:24:41;7.57;;;5.55;;
71296;SDS011;59082;50.658;4.608;2023-04-22T10:27:07;7.43;;;5.60;;
71296;SDS011;59082;50.658;4.608;2023-04-22T10:29:36;7.07;;;5.32;;
71296;SDS011;59082;50.658;4.608;2023-04-22T10:34:28;7.83;;;5.87;;
71296;SDS011;59082;50.658;4.608;2023-04-22T10:37:04;7.88;;;6.60;;
71296;SDS011;59082;50.658;4.608;2023-04-22T10:39:30;6.40;;;5.80;;
71296;SDS011;59082;50.658;4.608;2023-04-22T10:41:57;6.50;;;5.50;;
71296;SDS011;59082;50.658;4.608;2023-04-22T10:44:43;9.00;;;6.95;;
71296;SDS011;59082;50.658;4.608;2023-04-22T10:47:09;7.83;;;6.00;;
71296;SDS011;59082;50.658;4.608;2023-04-22T10:49:34;7.60;;;5.78;;
71296;SDS011;59082;50.658;4.608;2023-04-22T10:52:00;6.43;;;5.60;;
71296;SDS011;59082;50.658;4.608;2023-04-22T10:57:03;10.60;;;5.80;;
71296;SDS011;59082;50.658;4.608;2023-04-22T10:59:29;8.80;;;6.30;;
71296;SDS011;59082;50.658;4.608;2023-04-22T11:01:59;9.02;;;6.72;;
71296;SDS011;59082;50.658;4.608;2023-04-22T11:04:25;7.13;;;5.68;;
71296;SDS011;59082;50.658;4.608;2023-04-22T11:09:38;9.43;;;5.93;;
71296;SDS011;59082;50.658;4.608;2023-04-22T11:14:48;7.40;;;5.30;;
71296;SDS011;59082;50.658;4.608;2023-04-22T11:17:14;7.87;;;6.30;;
71296;SDS011;59082;50.658;4.608;2023-04-22T11:19:40;9.02;;;5.90;;
71296;SDS011;59082;50.658;4.608;2023-04-22T11:22:07;7.80;;;6.72;;
71296;SDS011;59082;50.658;4.608;2023-04-22T11:24:32;7.27;;;5.37;;
71296;SDS011;59082;50.658;4.608;2023-04-22T11:26:57;6.67;;;4.80;;
71296;SDS011;59082;50.658;4.608;2023-04-22T11:29:38;6.87;;;4.93;;
71296;SDS011;59082;50.658;4.608;2023-04-22T11:32:05;5.57;;;4.10;;
71296;SDS011;59082;50.658;4.608;2023-04-22T11:34:30;5.70;;;4.40;;
71296;SDS011;59082;50.658;4.608;2023-04-22T11:36:56;5.47;;;4.00;;
71296;SDS011;59082;50.658;4.608;2023-04-22T11:39:22;5.55;;;4.10;;
71296;SDS011;59082;50.658;4.608;2023-04-22T11:41:47;5.03;;;4.40;;
71296;SDS011;59082;50.658;4.608;2023-04-22T11:44:13;6.15;;;4.13;;
71296;SDS011;59082;50.658;4.608;2023-04-22T11:46:38;6.30;;;4.47;;
71296;SDS011;59082;50.658;4.608;2023-04-22T11:49:13;4.75;;;4.32;;
71296;SDS011;59082;50.658;4.608;2023-04-22T11:51:54;5.50;;;4.25;;
71296;SDS011;59082;50.658;4.608;2023-04-22T11:54:36;5.77;;;4.50;;
71296;SDS011;59082;50.658;4.608;2023-04-22T11:57:05;5.07;;;4.57;;
71296;SDS011;59082;50.658;4.608;2023-04-22T11:59:30;5.28;;;4.32;;
71296;SDS011;59082;50.658;4.608;2023-04-22T12:01:56;5.40;;;4.90;;
71296;SDS011;59082;50.658;4.608;2023-04-22T12:04:21;5.33;;;4.43;;
71296;SDS011;59082;50.658;4.608;2023-04-22T12:06:47;4.78;;;3.78;;
71296;SDS011;59082;50.658;4.608;2023-04-22T12:09:16;6.10;;;4.57;;
71296;SDS011;59082;50.658;4.608;2023-04-22T12:11:43;5.07;;;4.37;;
71296;SDS011;59082;50.658;4.608;2023-04-22T12:14:09;6.20;;;4.80;;
71296;SDS011;59082;50.658;4.608;2023-04-22T12:16:41;6.68;;;5.45;;
71296;SDS011;59082;50.658;4.608;2023-04-22T12:19:06;6.70;;;5.38;;
71296;SDS011;59082;50.658;4.608;2023-04-22T12:21:32;5.70;;;5.10;;
71296;SDS011;59082;50.658;4.608;2023-04-22T12:23:58;6.30;;;5.33;;
71296;SDS011;59082;50.658;4.608;2023-04-22T12:26:24;5.17;;;4.50;;
71296;SDS011;59082;50.658;4.608;2023-04-22T12:28:51;5.43;;;4.93;;
71296;SDS011;59082;50.658;4.608;2023-04-22T12:31:16;6.47;;;5.60;;
71296;SDS011;59082;50.658;4.608;2023-04-22T12:33:42;6.60;;;5.00;;
71296;SDS011;59082;50.658;4.608;2023-04-22T12:36:08;5.63;;;4.45;;
71296;SDS011;59082;50.658;4.608;2023-04-22T12:38:34;6.17;;;4.50;;
71296;SDS011;59082;50.658;4.608;2023-04-22T12:41:00;5.65;;;5.15;;
71296;SDS011;59082;50.658;4.608;2023-04-22T12:43:25;5.23;;;4.60;;
71296;SDS011;59082;50.658;4.608;2023-04-22T12:45:51;4.75;;;4.35;;
71296;SDS011;59082;50.658;4.608;2023-04-22T12:48:16;5.47;;;4.53;;
71296;SDS011;59082;50.658;4.608;2023-04-22T12:50:42;6.37;;;4.53;;
71296;SDS011;59082;50.658;4.608;2023-04-22T12:53:07;4.18;;;3.80;;
71296;SDS011;59082;50.658;4.608;2023-04-22T12:55:33;4.63;;;4.07;;
71296;SDS011;59082;50.658;4.608;2023-04-22T12:57:58;4.95;;;4.53;;
71296;SDS011;59082;50.658;4.608;2023-04-22T13:00:24;4.43;;;4.03;;
71296;SDS011;59082;50.658;4.608;2023-04-22T13:02:50;4.93;;;4.53;;
71296;SDS011;59082;50.658;4.608;2023-04-22T13:05:16;4.20;;;3.90;;
71296;SDS011;59082;50.658;4.608;2023-04-22T13:07:41;4.13;;;3.77;;
71296;SDS011;59082;50.658;4.608;2023-04-22T13:10:10;4.05;;;3.65;;
71296;SDS011;59082;50.658;4.608;2023-04-22T13:12:35;4.30;;;3.90;;
71296;SDS011;59082;50.658;4.608;2023-04-22T13:15:01;4.13;;;3.73;;
71296;SDS011;59082;50.658;4.608;2023-04-22T13:17:27;6.47;;;3.70;;
71296;SDS011;59082;50.658;4.608;2023-04-22T13:19:52;3.40;;;3.10;;
71296;SDS011;59082;50.658;4.608;2023-04-22T13:22:18;3.37;;;3.07;;
71296;SDS011;59082;50.658;4.608;2023-04-22T13:24:43;3.30;;;2.97;;
71296;SDS011;59082;50.658;4.608;2023-04-22T13:27:09;4.13;;;3.60;;
71296;SDS011;59082;50.658;4.608;2023-04-22T13:29:35;3.67;;;3.38;;
71296;SDS011;59082;50.658;4.608;2023-04-22T13:32:00;5.43;;;3.20;;
71296;SDS011;59082;50.658;4.608;2023-04-22T13:34:26;5.32;;;3.55;;
71296;SDS011;59082;50.658;4.608;2023-04-22T13:36:51;6.87;;;4.80;;
71296;SDS011;59082;50.658;4.608;2023-04-22T13:39:17;5.13;;;4.60;;
71296;SDS011;59082;50.658;4.608;2023-04-22T13:41:43;4.93;;;4.28;;
71296;SDS011;59082;50.658;4.608;2023-04-22T13:44:12;5.00;;;4.50;;
71296;SDS011;59082;50.658;4.608;2023-04-22T13:46:37;4.82;;;4.43;;
71296;SDS011;59082;50.658;4.608;2023-04-22T13:49:03;4.53;;;3.27;;
71296;SDS011;59082;50.658;4.608;2023-04-22T13:51:29;4.90;;;4.40;;
71296;SDS011;59082;50.658;4.608;2023-04-22T13:53:55;6.10;;;4.07;;
71296;SDS011;59082;50.658;4.608;2023-04-22T13:56:21;4.68;;;4.25;;
71296;SDS011;59082;50.658;4.608;2023-04-22T13:58:47;4.38;;;3.97;;
71296;SDS011;59082;50.658;4.608;2023-04-22T14:01:13;4.57;;;3.97;;
71296;SDS011;59082;50.658;4.608;2023-04-22T14:03:38;4.13;;;3.60;;
71296;SDS011;59082;50.658;4.608;2023-04-22T14:06:03;4.60;;;4.15;;
71296;SDS011;59082;50.658;4.608;2023-04-22T14:08:29;6.67;;;3.43;;
71296;SDS011;59082;50.658;4.608;2023-04-22T14:10:54;3.60;;;3.23;;
71296;SDS011;59082;50.658;4.608;2023-04-22T14:13:20;3.63;;;3.33;;
71296;SDS011;59082;50.658;4.608;2023-04-22T14:15:47;4.68;;;3.78;;
71296;SDS011;59082;50.658;4.608;2023-04-22T14:18:14;5.03;;;3.70;;
71296;SDS011;59082;50.658;4.608;2023-04-22T14:20:39;4.83;;;4.00;;
71296;SDS011;59082;50.658;4.608;2023-04-22T14:23:07;5.70;;;3.90;;
71296;SDS011;59082;50.658;4.608;2023-04-22T14:25:32;4.30;;;3.43;;
71296;SDS011;59082;50.658;4.608;2023-04-22T14:27:57;4.20;;;3.80;;
71296;SDS011;59082;50.658;4.608;2023-04-22T14:30:23;3.22;;;2.92;;
71296;SDS011;59082;50.658;4.608;2023-04-22T14:32:48;4.67;;;2.93;;
71296;SDS011;59082;50.658;4.608;2023-04-22T14:35:16;2.80;;;2.53;;
71296;SDS011;59082;50.658;4.608;2023-04-22T14:37:41;2.07;;;1.87;;
71296;SDS011;59082;50.658;4.608;2023-04-22T14:40:09;2.42;;;1.70;;
71296;SDS011;59082;50.658;4.608;2023-04-22T14:42:36;2.30;;;1.80;;
71296;SDS011;59082;50.658;4.608;2023-04-22T14:45:01;2.07;;;1.40;;
71296;SDS011;59082;50.658;4.608;2023-04-22T14:47:26;2.93;;;1.53;;
71296;SDS011;59082;50.658;4.608;2023-04-22T14:49:52;2.55;;;2.08;;
71296;SDS011;59082;50.658;4.608;2023-04-22T14:52:17;3.07;;;2.70;;
71296;SDS011;59082;50.658;4.608;2023-04-22T14:54:43;3.63;;;3.23;;
71296;SDS011;59082;50.658;4.608;2023-04-22T14:57:08;4.37;;;3.33;;
71296;SDS011;59082;50.658;4.608;2023-04-22T14:59:33;5.30;;;4.17;;
71296;SDS011;59082;50.658;4.608;2023-04-22T15:01:59;7.60;;;4.97;;
71296;SDS011;59082;50.658;4.608;2023-04-22T15:04:24;7.67;;;6.87;;
71296;SDS011;59082;50.658;4.608;2023-04-22T15:06:50;8.25;;;6.40;;
71296;SDS011;59082;50.658;4.608;2023-04-22T15:09:21;7.95;;;6.93;;
71296;SDS011;59082;50.658;4.608;2023-04-22T15:11:46;9.87;;;7.50;;
71296;SDS011;59082;50.658;4.608;2023-04-22T15:14:12;10.90;;;8.83;;
71296;SDS011;59082;50.658;4.608;2023-04-22T15:16:37;11.27;;;8.70;;
71296;SDS011;59082;50.658;4.608;2023-04-22T15:19:02;13.23;;;9.37;;
71296;SDS011;59082;50.658;4.608;2023-04-22T15:21:28;11.93;;;8.57;;
71296;SDS011;59082;50.658;4.608;2023-04-22T15:23:53;13.97;;;9.87;;
71296;SDS011;59082;50.658;4.608;2023-04-22T15:26:18;10.73;;;8.77;;
71296;SDS011;59082;50.658;4.608;2023-04-22T15:28:44;11.13;;;8.07;;
71296;SDS011;59082;50.658;4.608;2023-04-22T15:31:09;12.13;;;8.27;;
71296;SDS011;59082;50.658;4.608;2023-04-22T15:33:34;11.90;;;8.97;;
71296;SDS011;59082;50.658;4.608;2023-04-22T15:36:00;13.18;;;10.20;;
71296;SDS011;59082;50.658;4.608;2023-04-22T15:38:28;12.82;;;8.75;;
71296;SDS011;59082;50.658;4.608;2023-04-22T15:40:53;12.27;;;8.90;;
71296;SDS011;59082;50.658;4.608;2023-04-22T15:43:18;10.73;;;7.57;;
71296;SDS011;59082;50.658;4.608;2023-04-22T15:45:43;14.37;;;8.57;;
71296;SDS011;59082;50.658;4.608;2023-04-22T15:48:09;11.13;;;8.77;;
71296;SDS011;59082;50.658;4.608;2023-04-22T15:50:35;11.87;;;8.43;;
71296;SDS011;59082;50.658;4.608;2023-04-22T15:53:00;10.85;;;7.68;;
71296;SDS011;59082;50.658;4.608;2023-04-22T15:55:26;11.53;;;7.67;;
71296;SDS011;59082;50.658;4.608;2023-04-22T15:57:51;10.90;;;8.30;;
71296;SDS011;59082;50.658;4.608;2023-04-22T16:00:16;10.57;;;7.93;;
71296;SDS011;59082;50.658;4.608;2023-04-22T16:02:42;9.77;;;7.10;;
71296;SDS011;59082;50.658;4.608;2023-04-22T16:05:08;10.63;;;7.90;;
71296;SDS011;59082;50.658;4.608;2023-04-22T16:07:34;11.25;;;7.68;;
71296;SDS011;59082;50.658;4.608;2023-04-22T16:09:59;11.23;;;8.77;;
71296;SDS011;59082;50.658;4.608;2023-04-22T16:12:25;11.87;;;9.67;;
71296;SDS011;59082;50.658;4.608;2023-04-22T16:14:50;12.27;;;9.27;;
71296;SDS011;59082;50.658;4.608;2023-04-22T16:17:15;12.97;;;9.23;;
71296;SDS011;59082;50.658;4.608;2023-04-22T16:19:41;13.05;;;8.70;;
71296;SDS011;59082;50.658;4.608;2023-04-22T16:22:07;14.33;;;9.57;;
71296;SDS011;59082;50.658;4.608;2023-04-22T16:24:32;15.23;;;11.10;;
71296;SDS011;59082;50.658;4.608;2023-04-22T16:26:58;16.13;;;10.80;;
71296;SDS011;59082;50.658;4.608;2023-04-22T16:29:23;15.70;;;10.65;;
71296;SDS011;59082;50.658;4.608;2023-04-22T16:31:48;16.17;;;10.63;;
71296;SDS011;59082;50.658;4.608;2023-04-22T16:34:14;16.10;;;10.73;;
71296;SDS011;59082;50.658;4.608;2023-04-22T16:36:39;15.52;;;10.73;;
71296;SDS011;59082;50.658;4.608;2023-04-22T16:39:05;14.93;;;10.80;;
71296;SDS011;59082;50.658;4.608;2023-04-22T16:41:32;16.77;;;11.10;;
71296;SDS011;59082;50.658;4.608;2023-04-22T16:43:57;15.48;;;11.50;;
71296;SDS011;59082;50.658;4.608;2023-04-22T16:46:23;15.80;;;11.25;;
71296;SDS011;59082;50.658;4.608;2023-04-22T16:48:49;15.77;;;11.20;;
71296;SDS011;59082;50.658;4.608;2023-04-22T16:51:14;16.00;;;10.73;;
71296;SDS011;59082;50.658;4.608;2023-04-22T16:53:39;16.50;;;12.13;;
71296;SDS011;59082;50.658;4.608;2023-04-22T16:56:05;15.20;;;11.48;;
71296;SDS011;59082;50.658;4.608;2023-04-22T16:58:30;15.57;;;11.27;;
71296;SDS011;59082;50.658;4.608;2023-04-22T17:00:56;18.37;;;11.47;;
71296;SDS011;59082;50.658;4.608;2023-04-22T17:03:21;17.33;;;11.30;;
71296;SDS011;59082;50.658;4.608;2023-04-22T17:05:46;20.53;;;11.23;;
71296;SDS011;59082;50.658;4.608;2023-04-22T17:08:12;14.82;;;10.93;;
71296;SDS011;59082;50.658;4.608;2023-04-22T17:10:38;13.10;;;9.37;;
71296;SDS011;59082;50.658;4.608;2023-04-22T17:13:08;16.75;;;10.45;;
71296;SDS011;59082;50.658;4.608;2023-04-22T17:15:34;14.20;;;10.87;;
71296;SDS011;59082;50.658;4.608;2023-04-22T17:18:00;16.90;;;12.77;;
71296;SDS011;59082;50.658;4.608;2023-04-22T17:20:26;22.50;;;16.30;;
71296;SDS011;59082;50.658;4.608;2023-04-22T17:22:51;16.80;;;12.93;;
71296;SDS011;59082;50.658;4.608;2023-04-22T17:25:17;14.43;;;11.50;;
71296;SDS011;59082;50.658;4.608;2023-04-22T17:27:42;16.23;;;12.35;;
71296;SDS011;59082;50.658;4.608;2023-04-22T17:30:08;18.73;;;11.70;;
71296;SDS011;59082;50.658;4.608;2023-04-22T17:32:33;16.00;;;10.50;;
71296;SDS011;59082;50.658;4.608;2023-04-22T17:34:58;15.70;;;12.10;;
71296;SDS011;59082;50.658;4.608;2023-04-22T17:37:24;15.13;;;11.63;;
71296;SDS011;59082;50.658;4.608;2023-04-22T17:39:49;19.87;;;14.20;;
71296;SDS011;59082;50.658;4.608;2023-04-22T17:42:15;17.87;;;14.23;;
71296;SDS011;59082;50.658;4.608;2023-04-22T17:44:40;17.93;;;12.60;;
71296;SDS011;59082;50.658;4.608;2023-04-22T17:47:05;18.30;;;12.63;;
71296;SDS011;59082;50.658;4.608;2023-04-22T17:49:31;15.53;;;11.90;;
71296;SDS011;59082;50.658;4.608;2023-04-22T17:51:56;16.73;;;11.68;;
71296;SDS011;59082;50.658;4.608;2023-04-22T17:54:21;17.40;;;13.37;;
71296;SDS011;59082;50.658;4.608;2023-04-22T17:56:47;21.50;;;13.60;;
71296;SDS011;59082;50.658;4.608;2023-04-22T17:59:12;18.83;;;15.17;;
71296;SDS011;59082;50.658;4.608;2023-04-22T18:01:38;23.05;;;14.35;;
71296;SDS011;59082;50.658;4.608;2023-04-22T18:04:03;19.83;;;14.30;;
71296;SDS011;59082;50.658;4.608;2023-04-22T18:06:29;22.87;;;14.10;;
71296;SDS011;59082;50.658;4.608;2023-04-22T18:08:54;17.70;;;11.50;;
71296;SDS011;59082;50.658;4.608;2023-04-22T18:11:20;18.97;;;12.80;;
71296;SDS011;59082;50.658;4.608;2023-04-22T18:13:45;16.47;;;11.80;;
71296;SDS011;59082;50.658;4.608;2023-04-22T18:16:10;16.23;;;11.40;;
71296;SDS011;59082;50.658;4.608;2023-04-22T18:18:36;19.50;;;12.73;;
71296;SDS011;59082;50.658;4.608;2023-04-22T18:21:01;19.70;;;14.00;;
71296;SDS011;59082;50.658;4.608;2023-04-22T18:23:27;21.40;;;13.38;;
71296;SDS011;59082;50.658;4.608;2023-04-22T18:25:52;21.77;;;14.63;;
71296;SDS011;59082;50.658;4.608;2023-04-22T18:28:18;23.00;;;14.63;;
71296;SDS011;59082;50.658;4.608;2023-04-22T18:30:43;24.87;;;14.43;;
71296;SDS011;59082;50.658;4.608;2023-04-22T18:33:09;23.40;;;16.00;;
71296;SDS011;59082;50.658;4.608;2023-04-22T18:35:34;25.13;;;15.70;;
71296;SDS011;59082;50.658;4.608;2023-04-22T18:38:00;24.60;;;16.08;;
71296;SDS011;59082;50.658;4.608;2023-04-22T18:40:25;28.30;;;16.83;;
71296;SDS011;59082;50.658;4.608;2023-04-22T18:42:51;25.17;;;15.93;;
71296;SDS011;59082;50.658;4.608;2023-04-22T18:45:16;26.33;;;15.63;;
71296;SDS011;59082;50.658;4.608;2023-04-22T18:47:42;27.45;;;17.48;;
71296;SDS011;59082;50.658;4.608;2023-04-22T18:50:09;33.03;;;19.00;;
71296;SDS011;59082;50.658;4.608;2023-04-22T18:52:34;47.22;;;28.30;;
71296;SDS011;59082;50.658;4.608;2023-04-22T18:55:00;34.17;;;19.70;;
71296;SDS011;59082;50.658;4.608;2023-04-22T18:57:25;30.03;;;16.90;;
71296;SDS011;59082;50.658;4.608;2023-04-22T18:59:50;30.45;;;16.67;;
71296;SDS011;59082;50.658;4.608;2023-04-22T19:02:16;28.40;;;16.90;;
71296;SDS011;59082;50.658;4.608;2023-04-22T19:04:41;33.30;;;17.67;;
71296;SDS011;59082;50.658;4.608;2023-04-22T19:07:07;28.93;;;18.23;;
71296;SDS011;59082;50.658;4.608;2023-04-22T19:09:32;26.47;;;17.40;;
71296;SDS011;59082;50.658;4.608;2023-04-22T19:11:58;26.55;;;16.58;;
71296;SDS011;59082;50.658;4.608;2023-04-22T19:14:23;26.17;;;17.07;;
71296;SDS011;59082;50.658;4.608;2023-04-22T19:16:49;29.23;;;17.67;;
71296;SDS011;59082;50.658;4.608;2023-04-22T19:19:15;29.05;;;17.02;;
71296;SDS011;59082;50.658;4.608;2023-04-22T19:21:40;30.77;;;17.33;;
71296;SDS011;59082;50.658;4.608;2023-04-22T19:24:06;26.38;;;15.95;;
71296;SDS011;59082;50.658;4.608;2023-04-22T19:26:31;29.43;;;16.33;;